首页
METAR-TAF:

METAR-TAF

机场 :

Coningsby, 英格兰

纬度: 53-05N, 经度: 000-10W, 海拔: 7米

当前天气观测

该预报发布于38分钟前的00:50 UTC
风速1节,风向
温度 4°C
湿度 100%
气压 1005 hPa
能见度10公里或以上

METAR: EGXC 170050Z AUTO 17001KT 9999 // NCD 04/04 Q1005

时间: 02:28 (01:28 UTC)

预报

该预报发布于2小时和58分钟前的22:30 UTC
预报有效从17日的 00点(UTC)到 17日的 18点(UTC)
风速5节,风向西转西南
能见度10公里或以上
1500米以下无云,无积雨云
几率 30%
从 17日的 04点(UTC)到 17日的 07点(UTC)
能見度: 7000
轻雾
几率 30% :
短暂存在
从 17日的 15点(UTC)到 17日的 18点(UTC)
能見度: 6000
散云层高于2200英尺, 积雨云.
阵雨

TAF: EGXC 162230Z 1700/1718 25005KT CAVOK PROB30 1704/1707 7000 BR PROB30 TEMPO 1715/1718 6000 SHRA SCT022CB

超过4000个机场的气象观测和天气预报(METAR&TAF报告)。

可查询的气象台以黄色和红色小点在地图上表示。

将鼠标移到小点上方,可查看气象台名称。

然后点击查看天气观测和预报。

如需切换地图:点击带黑十字的绿色按钮放大地图;点击带横线的绿色按钮缩小地图;或者点击绿色箭头查看邻近地区的地图。


METAR-TAF: